sensor_id;sensor_type;location;lat;lon;timestamp;pressure;altitude;pressure_sealevel;temperature;humidity
76114;BME280;64845;53.086;5.834;2022-12-18T00:02:11;102858.38;;;-3.71;80.68
76114;BME280;64845;53.086;5.834;2022-12-18T00:04:37;102848.56;;;-3.75;80.88
76114;BME280;64845;53.086;5.834;2022-12-18T00:07:02;102840.75;;;-3.75;81.20
76114;BME280;64845;53.086;5.834;2022-12-18T00:09:28;102844.34;;;-3.73;80.96
76114;BME280;64845;53.086;5.834;2022-12-18T00:11:53;102851.34;;;-3.72;81.35
76114;BME280;64845;53.086;5.834;2022-12-18T00:14:18;102854.72;;;-3.74;80.80
76114;BME280;64845;53.086;5.834;2022-12-18T00:16:45;102844.34;;;-3.73;81.21
76114;BME280;64845;53.086;5.834;2022-12-18T00:19:12;102850.97;;;-3.80;80.90
76114;BME280;64845;53.086;5.834;2022-12-18T00:21:40;102852.59;;;-3.82;80.51
76114;BME280;64845;53.086;5.834;2022-12-18T00:24:07;102849.16;;;-3.81;81.08
76114;BME280;64845;53.086;5.834;2022-12-18T00:26:34;102856.19;;;-3.80;81.22
76114;BME280;64845;53.086;5.834;2022-12-18T00:29:05;102855.13;;;-3.83;81.07
76114;BME280;64845;53.086;5.834;2022-12-18T00:31:31;102859.50;;;-3.82;80.74
76114;BME280;64845;53.086;5.834;2022-12-18T00:33:57;102865.56;;;-3.83;81.08
76114;BME280;64845;53.086;5.834;2022-12-18T00:36:26;102864.59;;;-3.85;81.30
76114;BME280;64845;53.086;5.834;2022-12-18T00:38:53;102860.06;;;-3.88;80.50
76114;BME280;64845;53.086;5.834;2022-12-18T00:41:19;102850.56;;;-3.87;80.36
76114;BME280;64845;53.086;5.834;2022-12-18T00:44:04;102852.00;;;-3.92;81.34
76114;BME280;64845;53.086;5.834;2022-12-18T00:46:31;102859.50;;;-3.99;80.84
76114;BME280;64845;53.086;5.834;2022-12-18T00:48:57;102856.72;;;-4.02;80.99
76114;BME280;64845;53.086;5.834;2022-12-18T00:51:23;102866.09;;;-4.05;80.67
76114;BME280;64845;53.086;5.834;2022-12-18T00:53:48;102864.41;;;-4.05;80.92
76114;BME280;64845;53.086;5.834;2022-12-18T00:56:13;102859.25;;;-4.03;81.19
76114;BME280;64845;53.086;5.834;2022-12-18T00:58:39;102860.88;;;-4.05;80.61
76114;BME280;64845;53.086;5.834;2022-12-18T01:01:05;102863.50;;;-4.05;80.81
76114;BME280;64845;53.086;5.834;2022-12-18T01:03:30;102861.81;;;-4.05;80.86
76114;BME280;64845;53.086;5.834;2022-12-18T01:05:56;102870.63;;;-4.03;80.83
76114;BME280;64845;53.086;5.834;2022-12-18T01:08:22;102876.72;;;-4.02;80.88
76114;BME280;64845;53.086;5.834;2022-12-18T01:10:47;102871.31;;;-4.05;80.96
76114;BME280;64845;53.086;5.834;2022-12-18T01:13:12;102880.59;;;-4.11;80.85
76114;BME280;64845;53.086;5.834;2022-12-18T01:15:38;102871.66;;;-4.16;81.17
76114;BME280;64845;53.086;5.834;2022-12-18T01:18:03;102861.13;;;-4.17;80.37
76114;BME280;64845;53.086;5.834;2022-12-18T01:20:29;102870.44;;;-4.22;81.16
76114;BME280;64845;53.086;5.834;2022-12-18T01:22:54;102865.03;;;-4.26;80.68
76114;BME280;64845;53.086;5.834;2022-12-18T01:25:19;102852.00;;;-4.26;80.96
76114;BME280;64845;53.086;5.834;2022-12-18T01:27:45;102856.47;;;-4.23;80.38
76114;BME280;64845;53.086;5.834;2022-12-18T01:30:10;102873.84;;;-4.23;80.72
76114;BME280;64845;53.086;5.834;2022-12-18T01:32:36;102865.69;;;-4.30;80.95
76114;BME280;64845;53.086;5.834;2022-12-18T01:35:01;102868.09;;;-4.33;80.89
76114;BME280;64845;53.086;5.834;2022-12-18T01:37:27;102875.13;;;-4.32;80.94
76114;BME280;64845;53.086;5.834;2022-12-18T01:39:52;102878.63;;;-4.31;80.56
76114;BME280;64845;53.086;5.834;2022-12-18T01:42:19;102887.34;;;-4.31;80.91
76114;BME280;64845;53.086;5.834;2022-12-18T01:47:35;102894.44;;;-4.28;80.90
76114;BME280;64845;53.086;5.834;2022-12-18T01:50:15;102899.00;;;-4.24;80.60
76114;BME280;64845;53.086;5.834;2022-12-18T01:52:44;102903.59;;;-4.20;80.90
76114;BME280;64845;53.086;5.834;2022-12-18T01:55:12;102905.47;;;-4.17;80.86
76114;BME280;64845;53.086;5.834;2022-12-18T01:57:39;102903.78;;;-4.17;80.49
76114;BME280;64845;53.086;5.834;2022-12-18T02:00:12;102892.44;;;-4.17;81.06
76114;BME280;64845;53.086;5.834;2022-12-18T02:02:39;102895.13;;;-4.16;80.39
76114;BME280;64845;53.086;5.834;2022-12-18T02:05:05;102903.78;;;-4.17;80.62
76114;BME280;64845;53.086;5.834;2022-12-18T02:13:03;102896.94;;;-4.15;81.16
76114;BME280;64845;53.086;5.834;2022-12-18T02:18:54;102902.84;;;-4.17;80.54
76114;BME280;64845;53.086;5.834;2022-12-18T02:21:42;102905.47;;;-4.17;80.71
76114;BME280;64845;53.086;5.834;2022-12-18T02:26:50;102892.44;;;-4.17;80.83
76114;BME280;64845;53.086;5.834;2022-12-18T02:29:24;102878.41;;;-4.19;81.21
76114;BME280;64845;53.086;5.834;2022-12-18T02:31:56;102878.41;;;-4.19;80.85
76114;BME280;64845;53.086;5.834;2022-12-18T02:34:24;102879.22;;;-4.20;81.05
76114;BME280;64845;53.086;5.834;2022-12-18T02:36:53;102872.19;;;-4.21;80.47
76114;BME280;64845;53.086;5.834;2022-12-18T02:39:20;102881.75;;;-4.22;81.10
76114;BME280;64845;53.086;5.834;2022-12-18T02:41:47;102890.44;;;-4.21;80.65
76114;BME280;64845;53.086;5.834;2022-12-18T02:44:13;102885.09;;;-4.25;80.34
76114;BME280;64845;53.086;5.834;2022-12-18T02:46:41;102881.50;;;-4.27;80.54
76114;BME280;64845;53.086;5.834;2022-12-18T02:49:30;102875.28;;;-4.29;80.73
76114;BME280;64845;53.086;5.834;2022-12-18T03:05:22;102860.59;;;-4.43;80.42
76114;BME280;64845;53.086;5.834;2022-12-18T03:07:56;102861.31;;;-4.46;80.42
76114;BME280;64845;53.086;5.834;2022-12-18T03:10:32;102867.34;;;-4.47;80.07
76114;BME280;64845;53.086;5.834;2022-12-18T03:13:12;102872.56;;;-4.47;80.69
76114;BME280;64845;53.086;5.834;2022-12-18T03:15:42;102867.34;;;-4.47;80.30
76114;BME280;64845;53.086;5.834;2022-12-18T03:18:13;102876.97;;;-4.46;80.24
76114;BME280;64845;53.086;5.834;2022-12-18T03:20:42;102869.06;;;-4.47;80.18
76114;BME280;64845;53.086;5.834;2022-12-18T03:23:12;102872.56;;;-4.47;80.44
76114;BME280;64845;53.086;5.834;2022-12-18T03:25:41;102876.88;;;-4.47;80.78
76114;BME280;64845;53.086;5.834;2022-12-18T03:28:12;102876.88;;;-4.47;80.54
76114;BME280;64845;53.086;5.834;2022-12-18T03:30:40;102876.78;;;-4.49;80.59
76114;BME280;64845;53.086;5.834;2022-12-18T03:33:25;102863.66;;;-4.50;80.47
76114;BME280;64845;53.086;5.834;2022-12-18T03:35:52;102857.66;;;-4.49;80.67
76114;BME280;64845;53.086;5.834;2022-12-18T03:38:17;102868.63;;;-4.55;80.17
76114;BME280;64845;53.086;5.834;2022-12-18T03:46:29;102852.19;;;-4.54;80.01
76114;BME280;64845;53.086;5.834;2022-12-18T03:49:11;102840.84;;;-4.55;80.53
76114;BME280;64845;53.086;5.834;2022-12-18T03:51:48;102844.25;;;-4.56;79.89
76114;BME280;64845;53.086;5.834;2022-12-18T03:54:16;102845.88;;;-4.58;80.03
76114;BME280;64845;53.086;5.834;2022-12-18T03:56:46;102858.72;;;-4.61;80.24
76114;BME280;64845;53.086;5.834;2022-12-18T03:59:15;102868.22;;;-4.63;79.88
76114;BME280;64845;53.086;5.834;2022-12-18T04:01:46;102865.59;;;-4.63;80.00
76114;BME280;64845;53.086;5.834;2022-12-18T04:04:13;102862.00;;;-4.65;80.19
76114;BME280;64845;53.086;5.834;2022-12-18T04:06:41;102856.63;;;-4.68;80.09
76114;BME280;64845;53.086;5.834;2022-12-18T04:09:07;102860.03;;;-4.69;80.17
76114;BME280;64845;53.086;5.834;2022-12-18T04:11:33;102869.47;;;-4.71;80.30
76114;BME280;64845;53.086;5.834;2022-12-18T04:13:58;102862.47;;;-4.72;80.10
76114;BME280;64845;53.086;5.834;2022-12-18T04:16:25;102852.84;;;-4.73;80.26
76114;BME280;64845;53.086;5.834;2022-12-18T04:18:52;102856.25;;;-4.74;80.18
76114;BME280;64845;53.086;5.834;2022-12-18T04:21:17;102850.22;;;-4.73;80.05
76114;BME280;64845;53.086;5.834;2022-12-18T04:23:43;102851.03;;;-4.74;79.87
76114;BME280;64845;53.086;5.834;2022-12-18T04:26:08;102852.75;;;-4.75;80.15
76114;BME280;64845;53.086;5.834;2022-12-18T04:28:33;102856.19;;;-4.76;79.99
76114;BME280;64845;53.086;5.834;2022-12-18T04:30:59;102853.56;;;-4.76;79.99
76114;BME280;64845;53.086;5.834;2022-12-18T04:33:24;102848.25;;;-4.77;79.79
76114;BME280;64845;53.086;5.834;2022-12-18T04:35:49;102851.66;;;-4.78;80.21
76114;BME280;64845;53.086;5.834;2022-12-18T04:38:15;102838.56;;;-4.80;80.24
76114;BME280;64845;53.086;5.834;2022-12-18T04:40:40;102842.88;;;-4.80;79.73
76114;BME280;64845;53.086;5.834;2022-12-18T04:43:06;102846.22;;;-4.83;80.20
76114;BME280;64845;53.086;5.834;2022-12-18T04:45:32;102866.19;;;-4.83;80.08
76114;BME280;64845;53.086;5.834;2022-12-18T04:47:59;102867.88;;;-4.84;80.01
76114;BME280;64845;53.086;5.834;2022-12-18T04:50:25;102866.06;;;-4.85;79.79
76114;BME280;64845;53.086;5.834;2022-12-18T04:52:50;102866.06;;;-4.85;79.64
76114;BME280;64845;53.086;5.834;2022-12-18T04:55:16;102863.47;;;-4.85;79.79
76114;BME280;64845;53.086;5.834;2022-12-18T04:57:41;102869.47;;;-4.86;79.99
76114;BME280;64845;53.086;5.834;2022-12-18T05:00:07;102859.88;;;-4.87;79.49
76114;BME280;64845;53.086;5.834;2022-12-18T05:02:32;102860.59;;;-4.90;79.42
76114;BME280;64845;53.086;5.834;2022-12-18T05:04:58;102857.91;;;-4.91;79.59
76114;BME280;64845;53.086;5.834;2022-12-18T05:07:23;102867.34;;;-4.93;79.47
76114;BME280;64845;53.086;5.834;2022-12-18T05:09:48;102863.75;;;-4.95;80.00
76114;BME280;64845;53.086;5.834;2022-12-18T05:12:14;102867.16;;;-4.96;79.65
76114;BME280;64845;53.086;5.834;2022-12-18T05:14:39;102864.47;;;-4.98;80.08
76114;BME280;64845;53.086;5.834;2022-12-18T05:17:04;102865.19;;;-5.01;79.56
76114;BME280;64845;53.086;5.834;2022-12-18T05:19:30;102871.28;;;-5.00;79.15
76114;BME280;64845;53.086;5.834;2022-12-18T05:21:55;102876.41;;;-5.02;79.64
76114;BME280;64845;53.086;5.834;2022-12-18T05:24:20;102872.81;;;-5.04;79.70
76114;BME280;64845;53.086;5.834;2022-12-18T05:26:46;102884.16;;;-5.03;79.11
76114;BME280;64845;53.086;5.834;2022-12-18T05:29:11;102888.56;;;-5.02;79.76
76114;BME280;64845;53.086;5.834;2022-12-18T05:31:38;102895.47;;;-5.03;79.77
76114;BME280;64845;53.086;5.834;2022-12-18T05:34:04;102892.78;;;-5.04;79.77
76114;BME280;64845;53.086;5.834;2022-12-18T05:36:29;102900.59;;;-5.04;79.58
76114;BME280;64845;53.086;5.834;2022-12-18T05:38:55;102904.69;;;-5.08;79.67
76114;BME280;64845;53.086;5.834;2022-12-18T05:41:20;102914.84;;;-5.12;79.55
76114;BME280;64845;53.086;5.834;2022-12-18T05:43:45;102912.81;;;-5.18;79.50
76114;BME280;64845;53.086;5.834;2022-12-18T05:46:13;102921.41;;;-5.19;79.47
76114;BME280;64845;53.086;5.834;2022-12-18T05:48:40;102924.03;;;-5.19;78.84
76114;BME280;64845;53.086;5.834;2022-12-18T05:51:08;102918.72;;;-5.21;78.89
76114;BME280;64845;53.086;5.834;2022-12-18T05:53:33;102920.50;;;-5.20;78.97
76114;BME280;64845;53.086;5.834;2022-12-18T05:56:04;102917.19;;;-5.17;79.00
76114;BME280;64845;53.086;5.834;2022-12-18T05:58:30;102916.28;;;-5.18;79.10
76114;BME280;64845;53.086;5.834;2022-12-18T06:00:56;102921.50;;;-5.18;79.12
76114;BME280;64845;53.086;5.834;2022-12-18T06:03:22;102915.41;;;-5.18;79.15
76114;BME280;64845;53.086;5.834;2022-12-18T06:05:47;102911.88;;;-5.19;79.36
76114;BME280;64845;53.086;5.834;2022-12-18T06:08:13;102906.66;;;-5.19;78.62
76114;BME280;64845;53.086;5.834;2022-12-18T06:10:38;102910.19;;;-5.18;79.38
76114;BME280;64845;53.086;5.834;2022-12-18T06:13:05;102910.09;;;-5.20;78.83
76114;BME280;64845;53.086;5.834;2022-12-18T06:15:31;102907.47;;;-5.20;79.14
76114;BME280;64845;53.086;5.834;2022-12-18T06:17:56;102903.09;;;-5.21;78.75
76114;BME280;64845;53.086;5.834;2022-12-18T06:20:22;102901.31;;;-5.22;79.04
76114;BME280;64845;53.086;5.834;2022-12-18T06:22:47;102892.69;;;-5.21;78.84
76114;BME280;64845;53.086;5.834;2022-12-18T06:25:13;102881.28;;;-5.23;79.28
76114;BME280;64845;53.086;5.834;2022-12-18T06:27:38;102884.69;;;-5.24;78.69
76114;BME280;64845;53.086;5.834;2022-12-18T06:30:04;102864.75;;;-5.23;78.94
76114;BME280;64845;53.086;5.834;2022-12-18T06:32:30;102855.94;;;-5.25;78.74
76114;BME280;64845;53.086;5.834;2022-12-18T06:34:55;102867.09;;;-5.28;78.55
76114;BME280;64845;53.086;5.834;2022-12-18T06:37:21;102864.41;;;-5.29;78.49
76114;BME280;64845;53.086;5.834;2022-12-18T06:39:51;102859.09;;;-5.31;78.69
76114;BME280;64845;53.086;5.834;2022-12-18T06:42:17;102854.69;;;-5.32;78.67
76114;BME280;64845;53.086;5.834;2022-12-18T06:44:43;102850.28;;;-5.33;78.64
76114;BME280;64845;53.086;5.834;2022-12-18T06:47:08;102858.09;;;-5.33;78.53
76114;BME280;64845;53.086;5.834;2022-12-18T06:49:34;102858.91;;;-5.34;78.56
76114;BME280;64845;53.086;5.834;2022-12-18T06:51:59;102863.13;;;-5.36;78.61
76114;BME280;64845;53.086;5.834;2022-12-18T06:54:24;102863.91;;;-5.37;78.29
76114;BME280;64845;53.086;5.834;2022-12-18T06:56:50;102853.34;;;-5.40;78.38
76114;BME280;64845;53.086;5.834;2022-12-18T06:59:15;102847.16;;;-5.42;78.52
76114;BME280;64845;53.086;5.834;2022-12-18T07:01:40;102841.84;;;-5.44;78.23
76114;BME280;64845;53.086;5.834;2022-12-18T07:04:06;102835.63;;;-5.46;78.11
76114;BME280;64845;53.086;5.834;2022-12-18T07:06:32;102842.44;;;-5.48;78.39
76114;BME280;64845;53.086;5.834;2022-12-18T07:08:57;102837.97;;;-5.51;78.26
76114;BME280;64845;53.086;5.834;2022-12-18T07:11:23;102830.97;;;-5.52;77.77
76114;BME280;64845;53.086;5.834;2022-12-18T07:13:48;102830.78;;;-5.55;78.07
76114;BME280;64845;53.086;5.834;2022-12-18T07:16:18;102844.59;;;-5.56;78.04
76114;BME280;64845;53.086;5.834;2022-12-18T07:18:50;102843.53;;;-5.59;78.21
76114;BME280;64845;53.086;5.834;2022-12-18T07:21:49;102844.34;;;-5.61;78.06
76114;BME280;64845;53.086;5.834;2022-12-18T07:24:15;102844.34;;;-5.61;78.00
76114;BME280;64845;53.086;5.834;2022-12-18T07:26:40;102839.94;;;-5.62;78.09
76114;BME280;64845;53.086;5.834;2022-12-18T07:29:05;102832.03;;;-5.63;78.00
76114;BME280;64845;53.086;5.834;2022-12-18T07:31:31;102827.72;;;-5.63;77.98
76114;BME280;64845;53.086;5.834;2022-12-18T07:33:56;102820.81;;;-5.62;77.40
76114;BME280;64845;53.086;5.834;2022-12-18T07:36:23;102830.31;;;-5.63;77.71
76114;BME280;64845;53.086;5.834;2022-12-18T07:38:49;102837.25;;;-5.63;77.84
76114;BME280;64845;53.086;5.834;2022-12-18T07:41:15;102836.34;;;-5.64;77.57
76114;BME280;64845;53.086;5.834;2022-12-18T07:43:41;102837.31;;;-5.62;77.78
76114;BME280;64845;53.086;5.834;2022-12-18T07:46:08;102837.44;;;-5.60;77.65
76114;BME280;64845;53.086;5.834;2022-12-18T07:48:34;102826.22;;;-5.59;77.87
76114;BME280;64845;53.086;5.834;2022-12-18T07:51:00;102820.28;;;-5.56;77.64
76114;BME280;64845;53.086;5.834;2022-12-18T07:53:26;102816.06;;;-5.54;77.91
76114;BME280;64845;53.086;5.834;2022-12-18T07:55:58;102822.28;;;-5.52;78.04
76114;BME280;64845;53.086;5.834;2022-12-18T07:58:24;102820.56;;;-5.52;77.96
76114;BME280;64845;53.086;5.834;2022-12-18T08:00:50;102813.66;;;-5.51;77.69
76114;BME280;64845;53.086;5.834;2022-12-18T08:03:15;102818.94;;;-5.50;77.65
76114;BME280;64845;53.086;5.834;2022-12-18T08:05:40;102807.81;;;-5.47;77.75
76114;BME280;64845;53.086;5.834;2022-12-18T08:08:06;102804.41;;;-5.46;77.54
76114;BME280;64845;53.086;5.834;2022-12-18T08:10:31;102814.00;;;-5.45;77.51
76114;BME280;64845;53.086;5.834;2022-12-18T08:12:57;102807.91;;;-5.46;77.76
76114;BME280;64845;53.086;5.834;2022-12-18T08:15:22;102810.69;;;-5.42;77.24
76114;BME280;64845;53.086;5.834;2022-12-18T08:17:47;102801.28;;;-5.40;77.54
76114;BME280;64845;53.086;5.834;2022-12-18T08:20:13;102801.34;;;-5.39;77.98
76114;BME280;64845;53.086;5.834;2022-12-18T08:22:41;102816.25;;;-5.36;77.74
76114;BME280;64845;53.086;5.834;2022-12-18T08:25:06;102820.75;;;-5.34;77.42
76114;BME280;64845;53.086;5.834;2022-12-18T08:27:32;102826.03;;;-5.32;77.45
76114;BME280;64845;53.086;5.834;2022-12-18T08:29:57;102819.22;;;-5.30;77.24
76114;BME280;64845;53.086;5.834;2022-12-18T08:32:24;102823.69;;;-5.27;77.29
76114;BME280;64845;53.086;5.834;2022-12-18T08:34:49;102819.47;;;-5.25;77.52
76114;BME280;64845;53.086;5.834;2022-12-18T08:37:15;102817.88;;;-5.23;77.19
76114;BME280;64845;53.086;5.834;2022-12-18T08:39:40;102818.94;;;-5.20;77.23
76114;BME280;64845;53.086;5.834;2022-12-18T08:42:05;102824.31;;;-5.17;77.70
76114;BME280;64845;53.086;5.834;2022-12-18T08:44:49;102825.41;;;-5.13;77.48
76114;BME280;64845;53.086;5.834;2022-12-18T08:47:15;102816.94;;;-5.09;77.49
76114;BME280;64845;53.086;5.834;2022-12-18T08:49:40;102799.88;;;-5.04;77.81
76114;BME280;64845;53.086;5.834;2022-12-18T08:52:05;102801.84;;;-4.99;77.88
76114;BME280;64845;53.086;5.834;2022-12-18T08:54:31;102808.22;;;-4.94;77.45
76114;BME280;64845;53.086;5.834;2022-12-18T08:56:56;102807.69;;;-4.89;77.26
76114;BME280;64845;53.086;5.834;2022-12-18T08:59:22;102814.88;;;-4.84;77.66
76114;BME280;64845;53.086;5.834;2022-12-18T09:01:48;102828.16;;;-4.80;77.97
76114;BME280;64845;53.086;5.834;2022-12-18T09:04:14;102822.31;;;-4.76;77.70
76114;BME280;64845;53.086;5.834;2022-12-18T09:06:39;102821.75;;;-4.70;77.84
76114;BME280;64845;53.086;5.834;2022-12-18T09:09:05;102828.13;;;-4.65;77.29
76114;BME280;64845;53.086;5.834;2022-12-18T09:11:31;102827.63;;;-4.58;77.79
76114;BME280;64845;53.086;5.834;2022-12-18T09:13:57;102821.03;;;-4.51;77.50
76114;BME280;64845;53.086;5.834;2022-12-18T09:16:25;102821.50;;;-4.43;78.03
76114;BME280;64845;53.086;5.834;2022-12-18T09:18:51;102818.31;;;-4.37;77.60
76114;BME280;64845;53.086;5.834;2022-12-18T09:21:19;102823.03;;;-4.30;77.61
76114;BME280;64845;53.086;5.834;2022-12-18T09:23:52;102832.13;;;-4.23;77.40
76114;BME280;64845;53.086;5.834;2022-12-18T09:26:18;102835.03;;;-4.17;77.52
76114;BME280;64845;53.086;5.834;2022-12-18T09:28:44;102834.56;;;-4.10;77.38
76114;BME280;64845;53.086;5.834;2022-12-18T09:31:11;102830.63;;;-4.02;77.67
76114;BME280;64845;53.086;5.834;2022-12-18T09:33:37;102834.56;;;-3.93;77.54
76114;BME280;64845;53.086;5.834;2022-12-18T09:36:05;102830.66;;;-3.85;77.93
76114;BME280;64845;53.086;5.834;2022-12-18T09:38:32;102833.56;;;-3.79;77.65
76114;BME280;64845;53.086;5.834;2022-12-18T09:41:03;102828.69;;;-3.73;77.65
76114;BME280;64845;53.086;5.834;2022-12-18T09:43:42;102822.88;;;-3.67;77.89
76114;BME280;64845;53.086;5.834;2022-12-18T09:46:16;102810.13;;;-3.61;78.02
76114;BME280;64845;53.086;5.834;2022-12-18T09:48:47;102807.84;;;-3.55;78.05
76114;BME280;64845;53.086;5.834;2022-12-18T09:51:56;102806.44;;;-3.48;77.45
76114;BME280;64845;53.086;5.834;2022-12-18T09:54:39;102793.69;;;-3.42;77.77
76114;BME280;64845;53.086;5.834;2022-12-18T09:57:05;102790.50;;;-3.36;78.25
76114;BME280;64845;53.086;5.834;2022-12-18T09:59:36;102775.81;;;-3.34;77.65
76114;BME280;64845;53.086;5.834;2022-12-18T10:02:14;102769.06;;;-3.29;77.82
76114;BME280;64845;53.086;5.834;2022-12-18T10:04:41;102763.13;;;-3.26;77.96
76114;BME280;64845;53.086;5.834;2022-12-18T10:07:19;102762.34;;;-3.24;77.93
76114;BME280;64845;53.086;5.834;2022-12-18T10:10:04;102762.53;;;-3.21;77.99
76114;BME280;64845;53.086;5.834;2022-12-18T10:18:14;102751.53;;;-3.13;77.71
76114;BME280;64845;53.086;5.834;2022-12-18T10:20:46;102741.31;;;-3.09;77.61
76114;BME280;64845;53.086;5.834;2022-12-18T10:23:16;102738.91;;;-3.04;78.17
76114;BME280;64845;53.086;5.834;2022-12-18T10:28:21;102729.66;;;-2.97;77.76
76114;BME280;64845;53.086;5.834;2022-12-18T10:30:48;102734.19;;;-2.93;77.67
76114;BME280;64845;53.086;5.834;2022-12-18T10:33:17;102738.75;;;-2.89;77.83
76114;BME280;64845;53.086;5.834;2022-12-18T10:35:43;102749.38;;;-2.86;77.67
76114;BME280;64845;53.086;5.834;2022-12-18T10:40:53;102734.88;;;-2.79;77.38
76114;BME280;64845;53.086;5.834;2022-12-18T10:43:26;102737.63;;;-2.76;77.76
76114;BME280;64845;53.086;5.834;2022-12-18T10:48:30;102717.94;;;-2.68;77.38
76114;BME280;64845;53.086;5.834;2022-12-18T10:50:56;102718.97;;;-2.64;77.09
76114;BME280;64845;53.086;5.834;2022-12-18T10:53:26;102717.47;;;-2.59;77.59
76114;BME280;64845;53.086;5.834;2022-12-18T10:55:54;102718.53;;;-2.55;77.47
76114;BME280;64845;53.086;5.834;2022-12-18T10:58:36;102719.53;;;-2.52;77.69
76114;BME280;64845;53.086;5.834;2022-12-18T11:03:37;102717.31;;;-2.43;77.37
76114;BME280;64845;53.086;5.834;2022-12-18T11:08:38;102703.66;;;-2.37;77.12
76114;BME280;64845;53.086;5.834;2022-12-18T11:11:07;102706.47;;;-2.32;76.88
76114;BME280;64845;53.086;5.834;2022-12-18T11:13:40;102702.13;;;-2.32;77.33
76114;BME280;64845;53.086;5.834;2022-12-18T11:16:05;102716.25;;;-2.28;77.08
76114;BME280;64845;53.086;5.834;2022-12-18T11:18:35;102703.22;;;-2.26;77.20
76114;BME280;64845;53.086;5.834;2022-12-18T11:21:09;102696.34;;;-2.24;76.64
76114;BME280;64845;53.086;5.834;2022-12-18T11:23:36;102688.53;;;-2.23;76.35
76114;BME280;64845;53.086;5.834;2022-12-18T11:26:04;102687.72;;;-2.22;76.85
76114;BME280;64845;53.086;5.834;2022-12-18T11:28:49;102669.47;;;-2.20;76.57
76114;BME280;64845;53.086;5.834;2022-12-18T11:31:27;102678.22;;;-2.20;76.86
76114;BME280;64845;53.086;5.834;2022-12-18T11:34:08;102668.66;;;-2.19;76.91
76114;BME280;64845;53.086;5.834;2022-12-18T11:36:41;102670.34;;;-2.20;76.43
76114;BME280;64845;53.086;5.834;2022-12-18T11:42:04;102647.91;;;-2.15;76.31
76114;BME280;64845;53.086;5.834;2022-12-18T11:47:39;102641.03;;;-2.13;76.80
76114;BME280;64845;53.086;5.834;2022-12-18T11:50:17;102635.00;;;-2.10;76.75
76114;BME280;64845;53.086;5.834;2022-12-18T11:52:43;102614.97;;;-2.09;76.38
76114;BME280;64845;53.086;5.834;2022-12-18T11:55:30;102615.88;;;-2.09;76.09
76114;BME280;64845;53.086;5.834;2022-12-18T11:58:16;102608.09;;;-2.07;76.27
76114;BME280;64845;53.086;5.834;2022-12-18T12:03:52;102589.94;;;-2.03;76.00
76114;BME280;64845;53.086;5.834;2022-12-18T12:09:33;102591.91;;;-1.97;76.47
76114;BME280;64845;53.086;5.834;2022-12-18T12:12:27;102578.06;;;-1.94;76.23
76114;BME280;64845;53.086;5.834;2022-12-18T12:23:06;102568.84;;;-1.85;75.99
76114;BME280;64845;53.086;5.834;2022-12-18T12:25:42;102573.34;;;-1.82;76.09
76114;BME280;64845;53.086;5.834;2022-12-18T12:36:36;102559.88;;;-1.69;75.43
76114;BME280;64845;53.086;5.834;2022-12-18T12:39:07;102556.44;;;-1.68;75.84
76114;BME280;64845;53.086;5.834;2022-12-18T12:41:35;102564.41;;;-1.64;75.53
76114;BME280;64845;53.086;5.834;2022-12-18T12:44:32;102551.50;;;-1.60;75.92
76114;BME280;64845;53.086;5.834;2022-12-18T12:47:03;102548.97;;;-1.58;75.42
76114;BME280;64845;53.086;5.834;2022-12-18T12:49:32;102542.03;;;-1.56;75.68
76114;BME280;64845;53.086;5.834;2022-12-18T12:52:05;102538.66;;;-1.54;75.30
76114;BME280;64845;53.086;5.834;2022-12-18T12:54:33;102535.25;;;-1.51;75.56
76114;BME280;64845;53.086;5.834;2022-12-18T12:59:51;102552.91;;;-1.45;75.32
76114;BME280;64845;53.086;5.834;2022-12-18T13:07:52;102546.25;;;-1.37;75.56
76114;BME280;64845;53.086;5.834;2022-12-18T13:15:45;102536.84;;;-1.32;75.03
76114;BME280;64845;53.086;5.834;2022-12-18T13:20:51;102516.03;;;-1.27;74.88
76114;BME280;64845;53.086;5.834;2022-12-18T13:23:29;102506.50;;;-1.25;75.07
76114;BME280;64845;53.086;5.834;2022-12-18T13:34:29;102510.19;;;-1.20;74.98
76114;BME280;64845;53.086;5.834;2022-12-18T13:39:56;102498.94;;;-1.17;74.80
76114;BME280;64845;53.086;5.834;2022-12-18T13:42:36;102501.59;;;-1.16;74.72
76114;BME280;64845;53.086;5.834;2022-12-18T13:45:39;102501.66;;;-1.14;74.59
76114;BME280;64845;53.086;5.834;2022-12-18T13:48:15;102488.59;;;-1.13;74.71
76114;BME280;64845;53.086;5.834;2022-12-18T13:50:41;102483.34;;;-1.13;74.71
76114;BME280;64845;53.086;5.834;2022-12-18T13:53:19;102485.97;;;-1.13;74.74
76114;BME280;64845;53.086;5.834;2022-12-18T13:55:45;102491.28;;;-1.11;74.84
76114;BME280;64845;53.086;5.834;2022-12-18T13:58:11;102478.19;;;-1.11;74.57
76114;BME280;64845;53.086;5.834;2022-12-18T14:00:41;102478.22;;;-1.10;74.63
76114;BME280;64845;53.086;5.834;2022-12-18T14:03:24;102473.00;;;-1.10;74.76
76114;BME280;64845;53.086;5.834;2022-12-18T14:05:56;102475.69;;;-1.08;74.21
76114;BME280;64845;53.086;5.834;2022-12-18T14:08:23;102466.88;;;-1.10;74.54
76114;BME280;64845;53.086;5.834;2022-12-18T14:10:49;102466.91;;;-1.09;74.35
76114;BME280;64845;53.086;5.834;2022-12-18T14:13:37;102468.69;;;-1.08;74.22
76114;BME280;64845;53.086;5.834;2022-12-18T14:16:05;102474.78;;;-1.09;74.10
76114;BME280;64845;53.086;5.834;2022-12-18T14:18:41;102448.53;;;-1.10;74.15
76114;BME280;64845;53.086;5.834;2022-12-18T14:21:18;102450.22;;;-1.11;74.45
76114;BME280;64845;53.086;5.834;2022-12-18T14:23:44;102444.13;;;-1.11;74.16
76114;BME280;64845;53.086;5.834;2022-12-18T14:26:27;102433.56;;;-1.13;74.12
76114;BME280;64845;53.086;5.834;2022-12-18T14:28:59;102433.44;;;-1.16;74.38
76114;BME280;64845;53.086;5.834;2022-12-18T14:31:30;102433.44;;;-1.16;74.26
76114;BME280;64845;53.086;5.834;2022-12-18T14:33:56;102418.56;;;-1.17;73.99
76114;BME280;64845;53.086;5.834;2022-12-18T14:36:27;102401.00;;;-1.19;74.45
76114;BME280;64845;53.086;5.834;2022-12-18T14:38:57;102386.94;;;-1.22;74.23
76114;BME280;64845;53.086;5.834;2022-12-18T14:41:23;102383.38;;;-1.24;73.95
76114;BME280;64845;53.086;5.834;2022-12-18T14:43:51;102385.03;;;-1.26;73.91
76114;BME280;64845;53.086;5.834;2022-12-18T14:46:36;102392.00;;;-1.28;74.15
76114;BME280;64845;53.086;5.834;2022-12-18T14:49:04;102387.50;;;-1.30;73.66